createdAt,value
2023-05-06T00:00:29.596Z,408.00
2023-05-06T00:01:29.652Z,408.00
2023-05-06T00:02:29.790Z,410.00
2023-05-06T00:03:29.976Z,412.00
2023-05-06T00:04:29.873Z,412.00
2023-05-06T00:05:29.911Z,411.00
2023-05-06T00:06:29.954Z,411.00
2023-05-06T00:07:30.039Z,410.00
2023-05-06T00:08:30.064Z,411.00
2023-05-06T00:09:30.139Z,410.00
2023-05-06T00:10:30.177Z,411.00
2023-05-06T00:11:30.238Z,413.00
2023-05-06T00:12:30.289Z,413.00
2023-05-06T00:13:30.373Z,413.00
2023-05-06T00:14:30.531Z,414.00
2023-05-06T00:15:32.233Z,415.00
2023-05-06T00:16:30.549Z,415.00
2023-05-06T00:17:30.629Z,417.00
2023-05-06T00:18:30.628Z,420.00
2023-05-06T00:19:30.690Z,419.00
2023-05-06T00:20:30.760Z,422.00
2023-05-06T00:21:30.831Z,420.00
2023-05-06T00:22:30.879Z,419.00
2023-05-06T00:23:30.942Z,419.00
2023-05-06T00:24:30.982Z,419.00
2023-05-06T00:25:31.045Z,419.00
2023-05-06T00:26:31.104Z,419.00
2023-05-06T00:27:31.177Z,418.00
2023-05-06T00:28:31.205Z,418.00
2023-05-06T00:29:31.272Z,417.00
2023-05-06T00:30:31.344Z,417.00
2023-05-06T00:31:31.407Z,417.00
2023-05-06T00:32:31.403Z,417.00
2023-05-06T00:33:31.440Z,418.00
2023-05-06T00:34:31.450Z,417.00
2023-05-06T00:35:31.446Z,419.00
2023-05-06T00:36:31.510Z,419.00
2023-05-06T00:37:31.573Z,418.00
2023-05-06T00:38:31.595Z,418.00
2023-05-06T00:39:31.603Z,416.00
2023-05-06T00:40:31.624Z,414.00
2023-05-06T00:41:31.645Z,415.00
2023-05-06T00:42:31.658Z,416.00
2023-05-06T00:43:31.702Z,415.00
2023-05-06T00:44:31.762Z,414.00
2023-05-06T00:45:31.792Z,415.00
2023-05-06T00:46:31.756Z,415.00
2023-05-06T00:47:31.794Z,417.00
2023-05-06T00:48:31.795Z,415.00
2023-05-06T00:49:31.824Z,418.00
2023-05-06T00:50:31.824Z,416.00
2023-05-06T00:51:31.866Z,416.00
2023-05-06T00:52:31.929Z,416.00
2023-05-06T00:53:31.995Z,416.00
2023-05-06T00:54:32.058Z,418.00
2023-05-06T00:55:32.113Z,418.00
2023-05-06T00:56:32.174Z,417.00
2023-05-06T00:57:32.186Z,417.00
2023-05-06T00:58:32.247Z,418.00
2023-05-06T00:59:32.240Z,416.00
2023-05-06T01:00:32.273Z,415.00
2023-05-06T01:01:32.359Z,415.00
2023-05-06T01:02:43.467Z,416.00
2023-05-06T01:03:33.382Z,415.00
2023-05-06T01:04:32.315Z,418.00
2023-05-06T01:05:32.282Z,416.00
2023-05-06T01:06:32.258Z,416.00
2023-05-06T01:07:32.255Z,413.00
2023-05-06T01:08:32.261Z,413.00
2023-05-06T01:09:32.242Z,414.00
2023-05-06T01:10:32.244Z,415.00
2023-05-06T01:11:32.248Z,416.00
2023-05-06T01:12:32.297Z,417.00
2023-05-06T01:13:32.271Z,416.00
2023-05-06T01:14:32.350Z,415.00
2023-05-06T01:15:32.318Z,416.00
2023-05-06T01:16:32.402Z,416.00
2023-05-06T01:17:32.411Z,416.00
2023-05-06T01:18:32.546Z,416.00
2023-05-06T01:19:32.464Z,415.00
2023-05-06T01:20:32.497Z,415.00
2023-05-06T01:21:32.499Z,413.00
2023-05-06T01:22:32.514Z,412.00
2023-05-06T01:23:32.593Z,413.00
2023-05-06T01:24:32.578Z,413.00
2023-05-06T01:25:32.614Z,412.00
2023-05-06T01:26:32.601Z,410.00
2023-05-06T01:27:32.604Z,410.00
2023-05-06T01:28:32.661Z,411.00
2023-05-06T01:29:32.641Z,410.00
2023-05-06T01:30:32.677Z,411.00
2023-05-06T01:31:32.833Z,412.00
2023-05-06T01:32:32.764Z,412.00
2023-05-06T01:33:32.725Z,413.00
2023-05-06T01:34:32.877Z,412.00
2023-05-06T01:35:32.804Z,412.00
2023-05-06T01:36:32.812Z,410.00
2023-05-06T01:37:32.822Z,412.00
2023-05-06T01:38:32.828Z,411.00
2023-05-06T01:39:32.853Z,410.00
2023-05-06T01:40:32.838Z,408.00
2023-05-06T01:41:32.849Z,408.00
2023-05-06T01:42:32.866Z,407.00
2023-05-06T01:43:32.901Z,406.00
2023-05-06T01:44:32.880Z,406.00
2023-05-06T01:45:32.886Z,407.00
2023-05-06T01:46:32.948Z,406.00
2023-05-06T01:47:32.935Z,407.00
2023-05-06T01:48:32.913Z,408.00
2023-05-06T01:49:32.912Z,410.00
2023-05-06T01:50:33.048Z,409.00
2023-05-06T01:51:32.974Z,409.00
2023-05-06T01:52:33.003Z,408.00
2023-05-06T01:53:32.982Z,409.00
2023-05-06T01:54:32.993Z,413.00
2023-05-06T01:55:33.002Z,416.00
2023-05-06T01:56:32.983Z,416.00
2023-05-06T01:57:32.992Z,417.00
2023-05-06T01:58:33.003Z,417.00
2023-05-06T01:59:32.988Z,417.00
2023-05-06T02:00:33.024Z,418.00
2023-05-06T02:01:33.059Z,417.00
2023-05-06T02:02:33.155Z,415.00
2023-05-06T02:03:33.127Z,412.00
2023-05-06T02:04:32.991Z,409.00
2023-05-06T02:05:33.013Z,409.00
2023-05-06T02:06:33.085Z,411.00
2023-05-06T02:07:33.010Z,413.00
2023-05-06T02:08:33.006Z,411.00
2023-05-06T02:09:32.986Z,410.00
2023-05-06T02:10:33.031Z,409.00
2023-05-06T02:11:33.036Z,409.00
2023-05-06T02:12:33.068Z,411.00
2023-05-06T02:13:33.065Z,412.00
2023-05-06T02:14:33.094Z,411.00
2023-05-06T02:15:33.105Z,410.00
2023-05-06T02:16:33.238Z,411.00
2023-05-06T02:17:33.224Z,413.00
2023-05-06T02:18:33.178Z,414.00
2023-05-06T02:19:33.181Z,415.00
2023-05-06T02:20:33.204Z,414.00
2023-05-06T02:21:33.220Z,414.00
2023-05-06T02:22:33.316Z,414.00
2023-05-06T02:23:33.242Z,415.00
2023-05-06T02:24:33.246Z,415.00
2023-05-06T02:25:33.266Z,415.00
2023-05-06T02:26:33.274Z,416.00
2023-05-06T02:27:33.297Z,415.00
2023-05-06T02:28:33.274Z,416.00
2023-05-06T02:29:33.296Z,417.00
2023-05-06T02:30:33.282Z,417.00
2023-05-06T02:31:33.353Z,418.00
2023-05-06T02:32:33.344Z,418.00
2023-05-06T02:33:33.361Z,420.00
2023-05-06T02:34:33.413Z,418.00
2023-05-06T02:35:33.404Z,416.00
2023-05-06T02:36:33.431Z,416.00
2023-05-06T02:37:33.457Z,416.00
2023-05-06T02:38:33.568Z,415.00
2023-05-06T02:39:33.481Z,416.00
2023-05-06T02:40:33.499Z,416.00
2023-05-06T02:41:33.521Z,416.00
2023-05-06T02:42:33.508Z,416.00
2023-05-06T02:43:33.509Z,417.00
2023-05-06T02:44:33.481Z,416.00
2023-05-06T02:45:33.508Z,415.00
2023-05-06T02:46:33.498Z,416.00
2023-05-06T02:47:33.533Z,417.00
2023-05-06T02:48:33.517Z,417.00
2023-05-06T02:49:33.514Z,418.00
2023-05-06T02:50:33.498Z,419.00
2023-05-06T02:51:33.500Z,420.00
2023-05-06T02:52:33.494Z,420.00
2023-05-06T02:53:33.498Z,419.00
2023-05-06T02:54:33.501Z,418.00
2023-05-06T02:55:33.503Z,417.00
2023-05-06T02:56:33.506Z,415.00
2023-05-06T02:57:33.550Z,416.00
2023-05-06T02:58:33.564Z,415.00
2023-05-06T02:59:33.618Z,417.00
2023-05-06T03:00:33.671Z,418.00
2023-05-06T03:01:33.720Z,420.00
2023-05-06T03:02:33.763Z,419.00
2023-05-06T03:03:33.726Z,419.00
2023-05-06T03:04:33.827Z,418.00
2023-05-06T03:05:33.774Z,419.00
2023-05-06T03:06:33.763Z,419.00
2023-05-06T03:07:33.761Z,419.00
2023-05-06T03:08:33.782Z,419.00
2023-05-06T03:09:33.822Z,418.00
2023-05-06T03:10:33.865Z,421.00
2023-05-06T03:11:33.793Z,421.00
2023-05-06T03:12:33.821Z,423.00
2023-05-06T03:13:33.793Z,424.00
2023-05-06T03:14:33.787Z,424.00
2023-05-06T03:15:33.778Z,424.00
2023-05-06T03:16:33.800Z,425.00
2023-05-06T03:17:33.805Z,428.00
2023-05-06T03:18:33.788Z,426.00
2023-05-06T03:19:33.918Z,425.00
2023-05-06T03:20:33.799Z,425.00
2023-05-06T03:21:33.842Z,423.00
2023-05-06T03:22:33.863Z,422.00
2023-05-06T03:23:33.885Z,423.00
2023-05-06T03:24:33.923Z,423.00
2023-05-06T03:25:33.939Z,422.00
2023-05-06T03:26:34.096Z,423.00
2023-05-06T03:27:33.992Z,422.00
2023-05-06T03:28:34.007Z,424.00
2023-05-06T03:29:33.992Z,425.00
2023-05-06T03:30:34.006Z,423.00
2023-05-06T03:31:34.073Z,422.00
2023-05-06T03:32:34.082Z,423.00
2023-05-06T03:33:34.029Z,426.00
2023-05-06T03:34:34.027Z,427.00
2023-05-06T03:35:34.049Z,426.00
2023-05-06T03:36:34.030Z,425.00
2023-05-06T03:37:34.033Z,424.00
2023-05-06T03:38:34.053Z,423.00
2023-05-06T03:39:34.045Z,423.00
2023-05-06T03:40:34.042Z,425.00
2023-05-06T03:41:34.051Z,426.00
2023-05-06T03:42:34.122Z,423.00
2023-05-06T03:43:34.090Z,423.00
2023-05-06T03:44:34.108Z,423.00
2023-05-06T03:45:34.123Z,422.00
2023-05-06T03:46:34.152Z,424.00
2023-05-06T03:47:34.179Z,427.00
2023-05-06T03:48:34.137Z,427.00
2023-05-06T03:49:34.142Z,424.00
2023-05-06T03:50:34.172Z,423.00
2023-05-06T03:51:34.158Z,422.00
2023-05-06T03:52:34.162Z,421.00
2023-05-06T03:53:34.176Z,421.00
2023-05-06T03:54:34.177Z,423.00
2023-05-06T03:55:34.185Z,426.00
2023-05-06T03:56:34.206Z,426.00
2023-05-06T03:57:34.221Z,425.00
2023-05-06T03:58:34.341Z,425.00
2023-05-06T03:59:34.218Z,422.00
2023-05-06T04:00:34.251Z,424.00
2023-05-06T04:01:34.275Z,425.00
2023-05-06T04:02:34.562Z,424.00
2023-05-06T04:03:34.414Z,423.00
2023-05-06T04:04:34.277Z,423.00
2023-05-06T04:05:34.279Z,425.00
2023-05-06T04:06:34.268Z,425.00
2023-05-06T04:07:34.266Z,425.00
2023-05-06T04:08:34.303Z,426.00
2023-05-06T04:09:34.300Z,427.00
2023-05-06T04:10:34.314Z,428.00
2023-05-06T04:11:34.318Z,428.00
2023-05-06T04:12:34.375Z,426.00
2023-05-06T04:13:34.383Z,427.00
2023-05-06T04:14:34.392Z,426.00
2023-05-06T04:15:34.325Z,429.00
2023-05-06T04:16:34.376Z,429.00
2023-05-06T04:17:34.460Z,430.00
2023-05-06T04:18:34.393Z,430.00
2023-05-06T04:19:34.330Z,431.00
2023-05-06T04:20:34.349Z,431.00
2023-05-06T04:21:34.358Z,430.00
2023-05-06T04:22:34.377Z,427.00
2023-05-06T04:23:34.380Z,425.00
2023-05-06T04:24:34.360Z,426.00
2023-05-06T04:25:34.381Z,426.00
2023-05-06T04:26:34.389Z,426.00
2023-05-06T04:27:34.400Z,427.00
2023-05-06T04:28:34.403Z,428.00
2023-05-06T04:29:34.422Z,429.00
2023-05-06T04:30:34.475Z,428.00
2023-05-06T04:31:34.490Z,427.00
2023-05-06T04:32:34.555Z,427.00
2023-05-06T04:33:34.455Z,427.00
2023-05-06T04:34:34.459Z,427.00
2023-05-06T04:35:34.473Z,428.00
2023-05-06T04:36:34.463Z,429.00
2023-05-06T04:37:34.471Z,431.00
2023-05-06T04:38:34.485Z,430.00
2023-05-06T04:39:34.509Z,431.00
2023-05-06T04:40:34.514Z,431.00
2023-05-06T04:41:34.537Z,433.00
2023-05-06T04:42:34.537Z,432.00
2023-05-06T04:43:34.551Z,433.00
2023-05-06T04:44:34.538Z,434.00
2023-05-06T04:45:34.628Z,436.00
2023-05-06T04:46:34.631Z,436.00
2023-05-06T04:47:34.601Z,434.00
2023-05-06T04:48:34.596Z,432.00
2023-05-06T04:49:34.600Z,431.00
2023-05-06T04:50:34.615Z,431.00
2023-05-06T04:51:34.661Z,430.00
2023-05-06T04:52:34.693Z,431.00
2023-05-06T04:53:34.746Z,432.00
2023-05-06T04:54:34.764Z,432.00
2023-05-06T04:55:34.800Z,430.00
2023-05-06T04:56:34.849Z,430.00
2023-05-06T04:57:34.887Z,429.00
2023-05-06T04:58:34.925Z,430.00
2023-05-06T04:59:34.947Z,428.00
2023-05-06T05:00:34.984Z,429.00
2023-05-06T05:01:35.072Z,428.00
2023-05-06T05:02:35.205Z,427.00
2023-05-06T05:03:35.173Z,427.00
2023-05-06T05:04:35.154Z,426.00
2023-05-06T05:05:35.197Z,426.00
2023-05-06T05:06:35.222Z,427.00
2023-05-06T05:07:35.274Z,426.00
2023-05-06T05:08:35.309Z,425.00
2023-05-06T05:09:35.352Z,425.00
2023-05-06T05:10:35.384Z,426.00
2023-05-06T05:11:35.362Z,426.00
2023-05-06T05:12:35.402Z,423.00
2023-05-06T05:13:35.388Z,423.00
2023-05-06T05:14:35.398Z,420.00
2023-05-06T05:15:35.423Z,418.00
2023-05-06T05:16:35.435Z,419.00
2023-05-06T05:17:35.560Z,420.00
2023-05-06T05:18:35.557Z,421.00
2023-05-06T05:19:35.542Z,420.00
2023-05-06T05:20:35.548Z,420.00
2023-05-06T05:21:35.586Z,421.00
2023-05-06T05:22:35.549Z,421.00
2023-05-06T05:23:35.588Z,421.00
2023-05-06T05:24:35.615Z,418.00
2023-05-06T05:25:35.688Z,417.00
2023-05-06T05:26:35.653Z,414.00
2023-05-06T05:27:35.681Z,414.00
2023-05-06T05:28:35.716Z,415.00
2023-05-06T05:29:35.746Z,417.00
2023-05-06T05:30:35.774Z,419.00
2023-05-06T05:31:35.812Z,420.00
2023-05-06T05:32:35.846Z,422.00
2023-05-06T05:33:35.841Z,423.00
2023-05-06T05:34:35.901Z,423.00
2023-05-06T05:35:35.860Z,423.00
2023-05-06T05:36:35.908Z,422.00
2023-05-06T05:37:35.941Z,422.00
2023-05-06T05:38:35.958Z,422.00
2023-05-06T05:39:35.998Z,421.00
2023-05-06T05:40:36.051Z,418.00
2023-05-06T05:41:36.052Z,420.00
2023-05-06T05:42:36.093Z,420.00
2023-05-06T05:43:36.181Z,420.00
2023-05-06T05:44:36.188Z,422.00
2023-05-06T05:45:36.204Z,422.00
2023-05-06T05:46:36.338Z,422.00
2023-05-06T05:47:36.270Z,423.00
2023-05-06T05:48:36.273Z,424.00
2023-05-06T05:49:36.312Z,424.00
2023-05-06T05:50:36.354Z,423.00
2023-05-06T05:51:36.371Z,422.00
2023-05-06T05:52:36.376Z,422.00
2023-05-06T05:53:36.397Z,422.00
2023-05-06T05:54:36.412Z,422.00
2023-05-06T05:55:36.453Z,422.00
2023-05-06T05:56:36.458Z,422.00
2023-05-06T05:57:36.461Z,422.00
2023-05-06T05:58:36.477Z,423.00
2023-05-06T05:59:36.509Z,424.00
2023-05-06T06:00:36.523Z,424.00
2023-05-06T06:01:36.525Z,423.00
2023-05-06T06:02:36.638Z,422.00
2023-05-06T06:03:36.681Z,422.00
2023-05-06T06:04:36.606Z,423.00
2023-05-06T06:05:36.600Z,422.00
2023-05-06T06:06:36.724Z,422.00
2023-05-06T06:07:36.618Z,421.00
2023-05-06T06:08:36.663Z,421.00
2023-05-06T06:09:36.641Z,421.00
2023-05-06T06:10:36.650Z,423.00
2023-05-06T06:11:36.647Z,424.00
2023-05-06T06:12:36.662Z,424.00
2023-05-06T06:13:36.630Z,423.00
2023-05-06T06:14:36.678Z,424.00
2023-05-06T06:15:36.703Z,423.00
2023-05-06T06:16:36.770Z,422.00
2023-05-06T06:17:36.787Z,421.00
2023-05-06T06:18:36.742Z,422.00
2023-05-06T06:19:36.753Z,422.00
2023-05-06T06:20:36.788Z,422.00
2023-05-06T06:21:36.813Z,422.00
2023-05-06T06:22:36.877Z,421.00
2023-05-06T06:23:36.834Z,420.00
2023-05-06T06:24:36.853Z,420.00
2023-05-06T06:25:36.875Z,420.00
2023-05-06T06:26:36.920Z,422.00
2023-05-06T06:27:36.915Z,422.00
2023-05-06T06:28:36.914Z,424.00
2023-05-06T06:29:36.959Z,426.00
2023-05-06T06:30:36.964Z,426.00
2023-05-06T06:31:39.703Z,425.00
2023-05-06T06:32:36.989Z,424.00
2023-05-06T06:33:36.958Z,425.00
2023-05-06T06:34:36.965Z,427.00
2023-05-06T06:35:36.948Z,426.00
2023-05-06T06:36:36.943Z,425.00
2023-05-06T06:37:36.934Z,426.00
2023-05-06T06:38:36.979Z,425.00
2023-05-06T06:39:36.923Z,423.00
2023-05-06T06:40:36.910Z,424.00
2023-05-06T06:41:36.906Z,426.00
2023-05-06T06:42:36.898Z,426.00
2023-05-06T06:43:36.882Z,428.00
2023-05-06T06:44:36.889Z,425.00
2023-05-06T06:45:36.916Z,425.00
2023-05-06T06:46:36.897Z,427.00
2023-05-06T06:47:36.890Z,425.00
2023-05-06T06:48:36.860Z,425.00
2023-05-06T06:49:36.854Z,425.00
2023-05-06T06:50:36.836Z,424.00
2023-05-06T06:51:36.842Z,423.00
2023-05-06T06:52:36.849Z,422.00
2023-05-06T06:53:36.827Z,421.00
2023-05-06T06:54:36.921Z,421.00
2023-05-06T06:55:36.820Z,422.00
2023-05-06T06:56:36.793Z,424.00
2023-05-06T06:57:36.808Z,425.00
2023-05-06T06:58:36.801Z,425.00
2023-05-06T06:59:36.772Z,427.00
2023-05-06T07:00:36.780Z,427.00
2023-05-06T07:01:36.891Z,427.00
2023-05-06T07:02:36.788Z,426.00
2023-05-06T07:03:36.769Z,425.00
2023-05-06T07:04:36.784Z,424.00
2023-05-06T07:05:36.760Z,424.00
2023-05-06T07:06:36.752Z,422.00
2023-05-06T07:07:36.759Z,423.00
2023-05-06T07:08:36.738Z,424.00
2023-05-06T07:09:38.322Z,423.00
2023-05-06T07:10:36.776Z,424.00
2023-05-06T07:11:36.710Z,422.00
2023-05-06T07:12:36.705Z,424.00
2023-05-06T07:13:36.695Z,425.00
2023-05-06T07:14:36.675Z,423.00
2023-05-06T07:15:36.664Z,422.00
2023-05-06T07:16:36.711Z,422.00
2023-05-06T07:17:36.688Z,421.00
2023-05-06T07:18:36.662Z,420.00
2023-05-06T07:19:36.650Z,418.00
2023-05-06T07:20:36.657Z,418.00
2023-05-06T07:21:36.657Z,417.00
2023-05-06T07:22:36.650Z,417.00
2023-05-06T07:23:36.632Z,416.00
2023-05-06T07:24:36.600Z,415.00
2023-05-06T07:25:36.600Z,416.00
2023-05-06T07:26:36.642Z,416.00
2023-05-06T07:27:36.577Z,417.00
2023-05-06T07:28:36.596Z,416.00
2023-05-06T07:29:36.606Z,416.00
2023-05-06T07:30:36.585Z,416.00
2023-05-06T07:31:36.661Z,416.00
2023-05-06T07:32:36.575Z,415.00
2023-05-06T07:33:36.574Z,417.00
2023-05-06T07:34:36.542Z,416.00
2023-05-06T07:35:36.542Z,415.00
2023-05-06T07:36:38.627Z,416.00
2023-05-06T07:37:36.534Z,417.00
2023-05-06T07:38:36.525Z,416.00
2023-05-06T07:39:36.499Z,413.00
2023-05-06T07:40:36.492Z,411.00
2023-05-06T07:41:36.512Z,409.00
2023-05-06T07:42:36.553Z,410.00
2023-05-06T07:43:36.510Z,410.00
2023-05-06T07:44:36.473Z,409.00
2023-05-06T07:45:36.481Z,410.00
2023-05-06T07:46:36.552Z,409.00
2023-05-06T07:47:36.553Z,410.00
2023-05-06T07:48:36.460Z,407.00
2023-05-06T07:49:36.455Z,405.00
2023-05-06T07:50:36.458Z,404.00
2023-05-06T07:51:36.426Z,404.00
2023-05-06T07:52:36.434Z,405.00
2023-05-06T07:53:36.429Z,404.00
2023-05-06T07:54:36.429Z,404.00
2023-05-06T07:55:36.413Z,403.00
2023-05-06T07:56:36.389Z,405.00
2023-05-06T07:57:36.428Z,405.00
2023-05-06T07:58:36.495Z,406.00
2023-05-06T07:59:36.388Z,406.00
2023-05-06T08:00:36.390Z,406.00
2023-05-06T08:01:36.362Z,407.00
2023-05-06T08:02:36.505Z,407.00
2023-05-06T08:03:36.444Z,406.00
2023-05-06T08:04:36.380Z,404.00
2023-05-06T08:05:36.355Z,404.00
2023-05-06T08:06:36.330Z,400.00
2023-05-06T08:07:36.329Z,400.00
2023-05-06T08:08:36.326Z,400.00
2023-05-06T08:09:36.308Z,399.00
2023-05-06T08:10:36.317Z,400.00
2023-05-06T08:11:36.310Z,400.00
2023-05-06T08:12:36.358Z,401.00
2023-05-06T08:13:36.308Z,402.00
2023-05-06T08:14:36.380Z,402.00
2023-05-06T08:15:36.301Z,401.00
2023-05-06T08:16:36.301Z,401.00
2023-05-06T08:17:36.353Z,399.00
2023-05-06T08:18:36.250Z,399.00
2023-05-06T08:19:36.272Z,399.00
2023-05-06T08:20:36.241Z,399.00
2023-05-06T08:21:36.252Z,398.00
2023-05-06T08:22:36.314Z,396.00
2023-05-06T08:23:36.244Z,397.00
2023-05-06T08:24:36.230Z,400.00
2023-05-06T08:25:36.209Z,401.00
2023-05-06T08:26:36.207Z,398.00
2023-05-06T08:27:36.214Z,398.00
2023-05-06T08:28:36.226Z,396.00
2023-05-06T08:29:36.244Z,398.00
2023-05-06T08:30:36.344Z,398.00
2023-05-06T08:31:36.326Z,398.00
2023-05-06T08:32:36.402Z,400.00
2023-05-06T08:33:36.365Z,400.00
2023-05-06T08:34:36.403Z,399.00
2023-05-06T08:35:36.423Z,401.00
2023-05-06T08:36:36.464Z,403.00
2023-05-06T08:37:36.488Z,403.00
2023-05-06T08:38:36.527Z,402.00
2023-05-06T08:39:36.566Z,401.00
2023-05-06T08:40:36.597Z,400.00
2023-05-06T08:41:36.629Z,399.00
2023-05-06T08:42:36.666Z,399.00
2023-05-06T08:43:36.736Z,399.00
2023-05-06T08:44:36.825Z,400.00
2023-05-06T08:45:36.908Z,399.00
2023-05-06T08:46:37.140Z,398.00
2023-05-06T08:47:37.012Z,398.00
2023-05-06T08:48:37.051Z,399.00
2023-05-06T08:49:37.106Z,398.00
2023-05-06T08:50:37.185Z,399.00
2023-05-06T08:51:37.232Z,399.00
2023-05-06T08:52:37.311Z,398.00
2023-05-06T08:53:37.338Z,401.00
2023-05-06T08:54:37.424Z,403.00
2023-05-06T08:55:37.472Z,402.00
2023-05-06T08:56:37.521Z,402.00
2023-05-06T08:57:37.555Z,402.00
2023-05-06T08:58:37.615Z,401.00
2023-05-06T08:59:37.716Z,402.00
2023-05-06T09:00:37.751Z,401.00
2023-05-06T09:01:37.983Z,400.00
2023-05-06T09:02:39.853Z,400.00
2023-05-06T09:03:38.014Z,399.00
2023-05-06T09:04:37.853Z,401.00
2023-05-06T09:05:37.859Z,402.00
2023-05-06T09:06:37.853Z,400.00
2023-05-06T09:07:37.849Z,400.00
2023-05-06T09:08:37.826Z,400.00
2023-05-06T09:09:37.833Z,403.00
2023-05-06T09:10:37.848Z,403.00
2023-05-06T09:11:37.804Z,403.00
2023-05-06T09:12:37.853Z,402.00
2023-05-06T09:13:37.806Z,404.00
2023-05-06T09:14:37.796Z,403.00
2023-05-06T09:15:37.784Z,403.00
2023-05-06T09:16:37.801Z,402.00
2023-05-06T09:17:37.792Z,404.00
2023-05-06T09:18:37.773Z,405.00
2023-05-06T09:19:37.764Z,407.00
2023-05-06T09:20:37.752Z,407.00
2023-05-06T09:21:37.743Z,408.00
2023-05-06T09:22:37.729Z,408.00
2023-05-06T09:23:37.735Z,407.00
2023-05-06T09:24:37.729Z,407.00
2023-05-06T09:25:37.720Z,405.00
2023-05-06T09:26:37.696Z,408.00
2023-05-06T09:27:37.713Z,410.00
2023-05-06T09:28:37.700Z,408.00
2023-05-06T09:29:37.699Z,407.00
2023-05-06T09:30:37.683Z,407.00
2023-05-06T09:31:37.773Z,406.00
2023-05-06T09:32:40.217Z,407.00
2023-05-06T09:33:37.695Z,406.00
2023-05-06T09:34:37.863Z,406.00
2023-05-06T09:35:37.647Z,406.00
2023-05-06T09:36:37.670Z,406.00
2023-05-06T09:37:37.637Z,405.00
2023-05-06T09:38:37.644Z,404.00
2023-05-06T09:39:37.625Z,405.00
2023-05-06T09:40:37.661Z,406.00
2023-05-06T09:41:37.625Z,405.00
2023-05-06T09:42:37.592Z,403.00
2023-05-06T09:43:37.602Z,403.00
2023-05-06T09:44:37.657Z,402.00
2023-05-06T09:45:37.576Z,402.00
2023-05-06T09:46:37.728Z,404.00
2023-05-06T09:47:37.635Z,405.00
2023-05-06T09:48:37.559Z,404.00
2023-05-06T09:49:37.565Z,403.00
2023-05-06T09:50:37.606Z,402.00
2023-05-06T09:51:37.541Z,401.00
2023-05-06T09:52:37.539Z,402.00
2023-05-06T09:53:37.537Z,402.00
2023-05-06T09:54:37.520Z,402.00
2023-05-06T09:55:37.508Z,402.00
2023-05-06T09:56:37.493Z,400.00
2023-05-06T09:57:37.511Z,402.00
2023-05-06T09:58:37.492Z,399.00
2023-05-06T09:59:37.485Z,400.00
2023-05-06T10:00:37.468Z,399.00
2023-05-06T10:01:37.898Z,399.00
2023-05-06T10:02:37.699Z,398.00
2023-05-06T10:03:37.550Z,397.00
2023-05-06T10:04:37.616Z,399.00
2023-05-06T10:05:37.455Z,398.00
2023-05-06T10:06:37.470Z,397.00
2023-05-06T10:07:37.423Z,397.00
2023-05-06T10:08:37.409Z,399.00
2023-05-06T10:09:37.442Z,398.00
2023-05-06T10:10:37.403Z,396.00
2023-05-06T10:11:37.475Z,394.00
2023-05-06T10:12:37.427Z,394.00
2023-05-06T10:13:37.399Z,396.00
2023-05-06T10:14:37.405Z,395.00
2023-05-06T10:15:37.387Z,394.00
2023-05-06T10:16:38.485Z,392.00
2023-05-06T10:17:37.403Z,391.00
2023-05-06T10:18:37.365Z,393.00
2023-05-06T10:19:37.378Z,397.00
2023-05-06T10:20:37.345Z,399.00
2023-05-06T10:21:37.353Z,399.00
2023-05-06T10:22:37.497Z,399.00
2023-05-06T10:23:37.368Z,399.00
2023-05-06T10:24:37.327Z,395.00
2023-05-06T10:25:37.327Z,394.00
2023-05-06T10:26:37.313Z,393.00
2023-05-06T10:27:37.295Z,391.00
2023-05-06T10:28:37.324Z,391.00
2023-05-06T10:29:37.386Z,393.00
2023-05-06T10:30:37.433Z,394.00
2023-05-06T10:31:37.531Z,393.00
2023-05-06T10:32:37.538Z,392.00
2023-05-06T10:33:37.840Z,392.00
2023-05-06T10:34:37.596Z,394.00
2023-05-06T10:35:37.634Z,394.00
2023-05-06T10:36:37.685Z,396.00
2023-05-06T10:37:37.700Z,396.00
2023-05-06T10:38:37.791Z,396.00
2023-05-06T10:39:38.509Z,395.00
2023-05-06T10:40:37.756Z,395.00
2023-05-06T10:41:37.862Z,394.00
2023-05-06T10:42:37.796Z,391.00
2023-05-06T10:43:37.823Z,393.00
2023-05-06T10:44:37.861Z,396.00
2023-05-06T10:45:37.952Z,394.00
2023-05-06T10:46:37.909Z,396.00
2023-05-06T10:47:37.997Z,398.00
2023-05-06T10:48:37.936Z,399.00
2023-05-06T10:49:37.967Z,399.00
2023-05-06T10:50:38.050Z,399.00
2023-05-06T10:51:38.052Z,398.00
2023-05-06T10:52:38.045Z,397.00
2023-05-06T10:53:38.078Z,397.00
2023-05-06T10:54:38.097Z,397.00
2023-05-06T10:55:38.128Z,397.00
2023-05-06T10:56:38.132Z,398.00
2023-05-06T10:57:38.145Z,398.00
2023-05-06T10:58:38.180Z,398.00
2023-05-06T10:59:38.192Z,397.00
2023-05-06T11:00:38.204Z,397.00
2023-05-06T11:01:38.265Z,397.00
2023-05-06T11:02:38.298Z,394.00
2023-05-06T11:03:38.339Z,395.00
2023-05-06T11:04:38.316Z,395.00
2023-05-06T11:05:38.347Z,396.00
2023-05-06T11:06:38.429Z,398.00
2023-05-06T11:07:38.418Z,397.00
2023-05-06T11:08:38.452Z,397.00
2023-05-06T11:09:38.514Z,396.00
2023-05-06T11:10:38.558Z,397.00
2023-05-06T11:11:38.566Z,396.00
2023-05-06T11:12:38.664Z,394.00
2023-05-06T11:13:38.617Z,394.00
2023-05-06T11:14:38.652Z,394.00
2023-05-06T11:15:38.708Z,396.00
2023-05-06T11:16:38.889Z,395.00
2023-05-06T11:17:38.837Z,395.00
2023-05-06T11:18:38.848Z,395.00
2023-05-06T11:19:38.925Z,395.00
2023-05-06T11:20:38.981Z,395.00
2023-05-06T11:21:39.027Z,394.00
2023-05-06T11:22:39.079Z,393.00
2023-05-06T11:23:39.135Z,392.00
2023-05-06T11:24:39.163Z,391.00
2023-05-06T11:25:39.166Z,390.00
2023-05-06T11:26:39.302Z,391.00
2023-05-06T11:27:39.206Z,391.00
2023-05-06T11:28:39.200Z,391.00
2023-05-06T11:29:39.254Z,393.00
2023-05-06T11:30:39.300Z,392.00
2023-05-06T11:31:39.370Z,393.00
2023-05-06T11:32:39.481Z,392.00
2023-05-06T11:33:39.448Z,392.00
2023-05-06T11:34:39.453Z,393.00
2023-05-06T11:35:39.446Z,394.00
2023-05-06T11:36:39.447Z,395.00
2023-05-06T11:37:39.459Z,396.00
2023-05-06T11:38:39.497Z,396.00
2023-05-06T11:39:41.015Z,396.00
2023-05-06T11:40:39.576Z,397.00
2023-05-06T11:41:39.617Z,399.00
2023-05-06T11:42:39.776Z,401.00
2023-05-06T11:43:39.726Z,402.00
2023-05-06T11:44:39.758Z,402.00
2023-05-06T11:45:39.760Z,403.00
2023-05-06T11:46:39.790Z,401.00
2023-05-06T11:47:39.815Z,401.00
2023-05-06T11:48:39.795Z,399.00
2023-05-06T11:49:39.808Z,400.00
2023-05-06T11:50:39.784Z,399.00
2023-05-06T11:51:39.823Z,401.00
2023-05-06T11:52:39.799Z,400.00
2023-05-06T11:53:39.801Z,399.00
2023-05-06T11:54:39.821Z,397.00
2023-05-06T11:55:39.828Z,398.00
2023-05-06T11:56:39.828Z,397.00
2023-05-06T11:57:39.867Z,398.00
2023-05-06T11:58:39.917Z,398.00
2023-05-06T11:59:39.855Z,398.00
2023-05-06T12:00:39.863Z,395.00
2023-05-06T12:01:39.871Z,395.00
2023-05-06T12:02:40.033Z,395.00
2023-05-06T12:03:40.022Z,395.00
2023-05-06T12:04:40.005Z,398.00
2023-05-06T12:05:39.915Z,397.00
2023-05-06T12:06:39.907Z,397.00
2023-05-06T12:07:39.908Z,396.00
2023-05-06T12:08:39.922Z,395.00
2023-05-06T12:09:39.940Z,393.00
2023-05-06T12:10:39.950Z,393.00
2023-05-06T12:11:39.959Z,392.00
2023-05-06T12:12:40.017Z,393.00
2023-05-06T12:13:39.965Z,392.00
2023-05-06T12:14:40.066Z,393.00
2023-05-06T12:15:39.993Z,395.00
2023-05-06T12:16:40.131Z,396.00
2023-05-06T12:17:39.983Z,395.00
2023-05-06T12:18:39.985Z,396.00
2023-05-06T12:19:39.994Z,396.00
2023-05-06T12:20:39.969Z,397.00
2023-05-06T12:21:39.972Z,397.00
2023-05-06T12:22:39.977Z,396.00
2023-05-06T12:23:40.088Z,394.00
2023-05-06T12:24:39.997Z,394.00
2023-05-06T12:25:39.998Z,395.00
2023-05-06T12:26:40.004Z,393.00
2023-05-06T12:27:40.001Z,394.00
2023-05-06T12:28:40.030Z,395.00